Time;durP1;ratioP1;P1;durP2;ratioP2;P2;SDS_P1;SDS_P2;PMS_P1;PMS_P2;Temp;Humidity;BMP_temperature;BMP_pressure;BME280_temperature;BME280_humidity;BME280_pressure;Samples;Min_cycle;Max_cycle;Signal;HPM_P1;HPM_P2
2022/12/17 13:08:21;;;;;;;21.93;16.50;;;0.90;10.80;;;;;;5005610;28;20180;-76
2022/12/17 13:10:47;;;;;;;21.73;14.70;;;0.90;8.50;;;;;;4999464;28;20176;-76
2022/12/17 13:13:34;;;;;;;18.53;14.13;;;0.90;7.70;;;;;;4999042;28;20203;-77
2022/12/17 13:16:29;;;;;;;16.33;13.37;;;0.90;12.70;;;;;;5000562;28;20263;-76
2022/12/17 13:19:31;;;;;;;16.67;14.10;;;0.90;10.60;;;;;;4984309;28;20795;-77
2022/12/17 13:22:09;;;;;;;18.57;14.40;;;0.90;19.70;;;;;;5002210;28;21325;-75
2022/12/17 13:24:35;;;;;;;17.27;13.47;;;0.90;20.00;;;;;;5002097;28;20237;-75
2022/12/17 13:27:01;;;;;;;16.43;12.60;;;1.00;12.20;;;;;;5000965;28;20657;-74
2022/12/17 13:29:36;;;;;;;17.33;13.13;;;0.80;1.00;;;;;;5002294;28;20199;-77
2022/12/17 13:32:08;;;;;;;15.67;13.07;;;0.90;1.00;;;;;;5002240;28;20186;-77
2022/12/17 13:35:11;;;;;;;35.77;24.13;;;1.00;1.00;;;;;;5001277;28;20188;-77
2022/12/17 13:38:20;;;;;;;25.83;18.43;;;1.00;1.80;;;;;;5012123;28;20198;-75
2022/12/17 13:40:57;;;;;;;17.13;12.90;;;1.00;1.00;;;;;;4980423;28;20242;-77
2022/12/17 13:43:29;;;;;;;15.17;10.80;;;0.90;1.00;;;;;;5016077;28;20211;-76
2022/12/17 13:45:55;;;;;;;15.20;10.30;;;0.80;1.00;;;;;;5001890;28;20187;-76
2022/12/17 13:48:26;;;;;;;15.53;11.47;;;0.80;1.00;;;;;;5001944;28;20595;-77
2022/12/17 13:51:01;;;;;;;13.63;11.67;;;0.80;1.00;;;;;;5001952;28;20179;-74
2022/12/17 13:53:28;;;;;;;18.27;14.10;;;0.80;1.00;;;;;;5001507;28;20384;-77
2022/12/17 13:55:56;;;;;;;18.53;14.27;;;0.70;5.80;;;;;;5016684;28;20547;-77
2022/12/17 13:58:26;;;;;;;18.90;14.10;;;0.60;11.90;;;;;;4999257;28;20668;-77
2022/12/17 14:01:07;;;;;;;19.40;14.00;;;0.60;14.60;;;;;;4998530;28;20233;-75
2022/12/17 14:03:33;;;;;;;18.27;14.90;;;0.60;16.70;;;;;;4999370;28;20249;-76
2022/12/17 14:05:59;;;;;;;20.40;14.40;;;0.60;15.80;;;;;;4998046;28;20267;-76
2022/12/17 14:08:27;;;;;;;17.33;13.33;;;0.50;18.80;;;;;;4999015;28;20187;-74
2022/12/17 14:12:20;;;;;;;15.93;12.67;;;0.50;18.80;;;;;;4998531;28;20557;-76
2022/12/17 14:13:45;;;;;;;16.93;12.87;;;0.40;16.50;;;;;;4999548;28;20298;-74
2022/12/17 14:16:18;;;;;;;18.33;13.00;;;0.20;13.10;;;;;;5000406;28;20191;-76
2022/12/17 14:18:51;;;;;;;16.87;12.83;;;0.00;13.00;;;;;;5015901;28;21218;-74
2022/12/17 14:21:18;;;;;;;16.30;12.50;;;-0.10;11.40;;;;;;5000793;28;20179;-74
2022/12/17 14:23:47;;;;;;;16.80;13.57;;;-0.20;18.60;;;;;;5000632;28;20203;-76
2022/12/17 14:26:13;;;;;;;19.97;13.67;;;-0.30;28.90;;;;;;5000126;28;20826;-77
2022/12/17 14:28:48;;;;;;;19.13;14.30;;;-0.30;34.10;;;;;;5000992;28;20794;-76
2022/12/17 14:31:17;;;;;;;16.53;13.70;;;-0.50;59.60;;;;;;5000928;28;21234;-74
2022/12/17 14:33:43;;;;;;;19.43;14.90;;;-0.70;75.40;;;;;;5001323;28;20200;-76
2022/12/17 14:36:16;;;;;;;20.17;16.00;;;-0.90;91.80;;;;;;5001020;28;20184;-76
2022/12/17 14:39:09;;;;;;;21.23;15.43;;;-1.00;99.90;;;;;;5001247;28;20681;-75
2022/12/17 14:44:26;;;;;;;19.03;14.87;;;-1.30;99.90;;;;;;5006606;28;20261;-78
2022/12/17 14:47:13;;;;;;;17.77;15.27;;;-1.40;99.90;;;;;;5003013;28;20294;-76
2022/12/17 14:50:11;;;;;;;19.93;15.97;;;-1.50;99.90;;;;;;5005028;28;20180;-76
2022/12/17 14:52:56;;;;;;;21.73;15.43;;;-1.60;99.90;;;;;;5004309;28;20200;-74
2022/12/17 14:55:26;;;;;;;18.73;14.70;;;-1.70;99.90;;;;;;5005227;28;20187;-74
2022/12/17 14:58:11;;;;;;;20.20;15.63;;;-1.90;99.90;;;;;;5004106;28;21131;-75
2022/12/17 15:00:53;;;;;;;21.67;15.23;;;-1.80;99.90;;;;;;5003971;28;21174;-74
2022/12/17 15:03:26;;;;;;;21.83;16.37;;;-1.90;99.90;;;;;;5002460;28;20213;-75
2022/12/17 15:06:04;;;;;;;20.63;16.03;;;-2.00;99.90;;;;;;5001337;28;20188;-75
2022/12/17 15:08:34;;;;;;;19.20;15.93;;;-2.10;1.00;;;;;;5001247;28;20171;-76
2022/12/17 15:11:00;;;;;;;18.57;15.20;;;-2.20;1.00;;;;;;5004232;28;20202;-76
2022/12/17 15:13:25;;;;;;;20.33;15.73;;;-2.30;1.00;;;;;;5008795;28;20208;-75
2022/12/17 15:15:51;;;;;;;22.77;15.10;;;-2.30;1.00;;;;;;5009748;28;20195;-80
2022/12/17 15:18:17;;;;;;;21.67;15.37;;;-2.30;1.00;;;;;;5008005;28;20183;-78
2022/12/17 15:20:42;;;;;;;22.23;16.50;;;-2.30;1.00;;;;;;5009578;28;20657;-77
2022/12/17 15:23:15;;;;;;;19.87;14.57;;;-2.30;1.00;;;;;;5008757;28;20203;-77
2022/12/17 15:25:41;;;;;;;20.73;15.00;;;-2.30;1.00;;;;;;5009460;28;20188;-77
2022/12/17 15:28:08;;;;;;;20.50;14.53;;;-2.40;1.00;;;;;;5009453;28;20657;-75
2022/12/17 15:30:34;;;;;;;19.00;15.70;;;-2.50;1.00;;;;;;5010120;28;20199;-79
2022/12/17 15:32:59;;;;;;;21.03;15.27;;;-2.50;1.00;;;;;;5009526;28;20226;-79
2022/12/17 15:35:25;;;;;;;20.00;15.70;;;-2.70;1.00;;;;;;5010044;28;20657;-76
2022/12/17 15:37:50;;;;;;;23.63;15.70;;;-2.70;1.00;;;;;;5009257;28;20523;-78
2022/12/17 15:40:16;;;;;;;24.07;16.10;;;-2.70;1.00;;;;;;5008516;28;20184;-76
2022/12/17 15:45:26;;;;;;;23.83;16.80;;;-2.90;1.00;;;;;;5009577;28;20222;-76
2022/12/17 15:47:52;;;;;;;23.57;18.10;;;-2.90;1.00;;;;;;5008563;28;20207;-78
2022/12/17 15:50:17;;;;;;;30.17;19.77;;;-3.00;1.00;;;;;;5010060;28;20179;-77
2022/12/17 15:52:43;;;;;;;27.50;19.97;;;-3.00;1.00;;;;;;5009511;28;20215;-76
2022/12/17 15:55:10;;;;;;;31.17;21.93;;;-3.10;1.00;;;;;;5009997;28;20196;-76
2022/12/17 15:57:36;;;;;;;32.13;22.07;;;-3.10;82.10;;;;;;5009425;28;20641;-78
2022/12/17 16:00:02;;;;;;;33.63;21.20;;;-3.20;99.90;;;;;;5010184;28;20191;-78
2022/12/17 16:02:27;;;;;;;30.30;20.83;;;-3.20;99.90;;;;;;5010835;28;20233;-77
2022/12/17 16:04:53;;;;;;;29.83;21.30;;;-3.20;99.90;;;;;;5011633;28;20226;-79
2022/12/17 16:07:18;;;;;;;31.00;21.67;;;-3.20;99.90;;;;;;5011735;28;20180;-77
2022/12/17 16:09:44;;;;;;;34.90;23.90;;;-3.20;99.90;;;;;;5011593;28;20255;-76
2022/12/17 16:12:10;;;;;;;32.67;23.87;;;-3.30;99.90;;;;;;5008036;28;20263;-76
2022/12/17 16:14:35;;;;;;;34.20;23.93;;;-3.40;1.00;;;;;;5008932;28;20813;-77
2022/12/17 16:17:01;;;;;;;36.43;24.27;;;-3.40;1.00;;;;;;5009838;28;20267;-78
2022/12/17 16:19:27;;;;;;;39.70;27.37;;;-3.50;1.00;;;;;;5010683;28;20196;-78
2022/12/17 16:21:52;;;;;;;37.67;25.43;;;-3.50;1.00;;;;;;5010176;28;20311;-78
2022/12/17 16:24:18;;;;;;;35.83;24.07;;;-3.50;1.00;;;;;;5007573;28;20214;-78
2022/12/17 16:26:43;;;;;;;37.37;25.80;;;-3.50;1.00;;;;;;5005453;28;20206;-76
2022/12/17 16:29:09;;;;;;;104.30;58.63;;;-3.50;1.00;;;;;;5004743;28;20778;-76
2022/12/17 16:31:36;;;;;;;54.93;36.70;;;-3.40;2.00;;;;;;5003170;28;20197;-76
2022/12/17 16:34:01;;;;;;;44.03;30.23;;;-3.40;74.40;;;;;;5004599;28;20191;-76
2022/12/17 16:36:27;;;;;;;77.77;48.00;;;-3.40;95.70;;;;;;5003833;28;20752;-77
2022/12/17 16:38:53;;;;;;;51.33;35.33;;;-3.40;91.80;;;;;;5004204;28;20323;-77
2022/12/17 16:41:20;;;;;;;46.00;31.70;;;-3.40;25.90;;;;;;5004702;28;20704;-77
2022/12/17 16:43:47;;;;;;;44.60;30.77;;;-3.60;1.00;;;;;;5006318;28;20214;-77
2022/12/17 16:46:33;;;;;;;46.93;31.40;;;-3.70;1.00;;;;;;5006133;28;20184;-77
2022/12/17 16:49:06;;;;;;;42.80;28.70;;;-3.80;1.00;;;;;;5005885;28;20176;-77
2022/12/17 16:51:32;;;;;;;40.97;28.30;;;-3.90;1.00;;;;;;5006523;28;20175;-77
2022/12/17 16:53:58;;;;;;;41.03;28.20;;;-4.00;7.50;;;;;;5004202;28;20215;-77
2022/12/17 16:56:27;;;;;;;46.10;31.43;;;-4.00;46.20;;;;;;5005564;28;20274;-75
2022/12/17 16:58:56;;;;;;;38.90;27.43;;;-4.10;1.00;;;;;;5005729;28;20630;-77
2022/12/17 17:01:25;;;;;;;42.93;29.17;;;-4.20;1.00;;;;;;5002819;28;20674;-75
2022/12/17 17:03:50;;;;;;;43.27;28.60;;;-4.30;20.50;;;;;;5005237;28;20222;-76
2022/12/17 17:06:17;;;;;;;40.83;27.33;;;-4.30;99.90;;;;;;5003628;28;20179;-76
2022/12/17 17:08:43;;;;;;;38.77;26.70;;;-4.30;99.90;;;;;;5004970;28;20266;-76
2022/12/17 17:11:21;;;;;;;43.93;30.73;;;-4.40;99.90;;;;;;5001223;28;20258;-77
2022/12/17 17:13:48;;;;;;;41.33;27.87;;;-4.40;99.90;;;;;;5005228;28;20203;-78
2022/12/17 17:16:16;;;;;;;39.73;27.80;;;-4.50;99.90;;;;;;5003948;28;20179;-75
2022/12/17 17:18:41;;;;;;;42.33;29.20;;;-4.50;99.90;;;;;;5004250;28;20187;-76
2022/12/17 17:21:23;;;;;;;67.53;43.47;;;-4.40;1.00;;;;;;5004644;28;20241;-76
2022/12/17 17:23:53;;;;;;;69.60;45.70;;;-4.40;1.00;;;;;;5004546;28;20213;-75
2022/12/17 17:26:19;;;;;;;54.93;36.67;;;-4.30;1.00;;;;;;5003469;28;20177;-76
2022/12/17 17:28:45;;;;;;;49.20;32.50;;;-4.30;1.00;;;;;;5003711;28;20175;-75
2022/12/17 17:31:13;;;;;;;60.70;40.40;;;-4.30;1.00;;;;;;5004908;28;20681;-76
2022/12/17 17:33:45;;;;;;;97.37;54.97;;;-4.30;1.00;;;;;;5004708;28;20203;-76
2022/12/17 17:36:23;;;;;;;59.67;37.23;;;-4.40;1.00;;;;;;5003950;28;20215;-75
2022/12/17 17:38:51;;;;;;;50.17;34.73;;;-4.50;1.00;;;;;;5004161;28;20203;-77
2022/12/17 17:41:19;;;;;;;49.57;33.17;;;-4.50;1.00;;;;;;5003117;28;20184;-77
2022/12/17 17:43:45;;;;;;;50.87;34.93;;;-4.70;1.00;;;;;;5004260;28;20696;-78
2022/12/17 17:46:16;;;;;;;53.03;35.63;;;-4.70;1.00;;;;;;5004110;28;20198;-77
2022/12/17 17:48:43;;;;;;;63.30;44.30;;;-4.80;1.00;;;;;;5003930;28;20195;-76
2022/12/17 17:51:16;;;;;;;59.17;39.60;;;-4.80;1.00;;;;;;5004259;28;20649;-76
2022/12/17 17:53:42;;;;;;;62.03;38.53;;;-4.90;99.90;;;;;;5019192;28;20356;-77
2022/12/17 17:56:14;;;;;;;60.67;39.17;;;-4.90;99.90;;;;;;5004100;28;20199;-75
2022/12/17 17:58:45;;;;;;;46.13;31.67;;;-5.00;99.90;;;;;;5004146;28;20234;-76
2022/12/17 18:01:14;;;;;;;47.57;32.40;;;-5.10;99.90;;;;;;5004037;28;20184;-77
2022/12/17 18:03:40;;;;;;;47.03;31.07;;;-5.10;99.90;;;;;;5003564;28;20211;-77
2022/12/17 18:06:08;;;;;;;51.73;33.13;;;-5.10;99.90;;;;;;5018272;28;20184;-76
2022/12/17 18:08:35;;;;;;;49.80;31.73;;;-4.50;1.00;;;;;;5004251;28;20196;-76
2022/12/17 18:11:03;;;;;;;54.47;34.87;;;-5.00;1.00;;;;;;5002305;28;20205;-76
2022/12/17 18:16:13;;;;;;;56.30;36.43;;;-5.10;99.90;;;;;;5005782;28;20186;-76
2022/12/17 18:18:39;;;;;;;57.33;37.40;;;-5.10;99.90;;;;;;5005130;28;20246;-77
2022/12/17 18:21:10;;;;;;;53.73;33.30;;;-5.10;99.90;;;;;;5004925;28;20650;-77
2022/12/17 18:23:36;;;;;;;54.70;32.90;;;-5.20;99.90;;;;;;5008678;28;20211;-77
2022/12/17 18:26:10;;;;;;;49.00;32.33;;;-5.30;99.90;;;;;;5008457;28;20720;-76
2022/12/17 18:28:36;;;;;;;54.63;35.40;;;-5.30;99.90;;;;;;5008222;28;20188;-77
2022/12/17 18:31:10;;;;;;;55.73;32.57;;;-5.30;99.90;;;;;;5009347;28;20539;-77
2022/12/17 18:33:38;;;;;;;55.13;34.50;;;-5.30;99.90;;;;;;5008783;28;20226;-77
2022/12/17 18:36:19;;;;;;;53.20;32.80;;;-5.40;99.90;;;;;;5006381;28;20195;-76
2022/12/17 18:38:45;;;;;;;56.67;33.63;;;-5.50;99.90;;;;;;5008798;28;20553;-77
2022/12/17 18:44:03;;;;;;;57.80;33.07;;;-5.60;57.00;;;;;;5008489;28;20225;-76
2022/12/17 18:46:29;;;;;;;47.57;31.63;;;-5.60;99.90;;;;;;5007737;28;20184;-77
2022/12/17 18:48:59;;;;;;;49.80;32.57;;;-5.70;99.90;;;;;;5008784;28;20187;-76
2022/12/17 18:51:26;;;;;;;51.67;30.37;;;-5.80;1.00;;;;;;5008422;28;20211;-78
2022/12/17 18:53:55;;;;;;;49.90;31.00;;;-5.80;1.00;;;;;;5008528;28;20231;-74
2022/12/17 18:56:20;;;;;;;48.70;31.47;;;-5.80;1.00;;;;;;5006562;28;20193;-75
2022/12/17 18:58:46;;;;;;;50.33;32.97;;;-5.90;1.00;;;;;;5007175;28;20192;-76
2022/12/17 19:01:23;;;;;;;48.03;29.63;;;-5.90;10.50;;;;;;5008754;28;20188;-76
2022/12/17 19:03:49;;;;;;;48.43;31.27;;;-5.90;1.00;;;;;;5008014;28;20261;-77
2022/12/17 19:06:16;;;;;;;49.17;31.20;;;-5.90;20.20;;;;;;5007664;28;20242;-77
2022/12/17 19:08:42;;;;;;;52.90;33.97;;;-5.80;99.90;;;;;;5007839;28;20225;-77
2022/12/17 19:11:09;;;;;;;51.30;33.47;;;-5.90;1.00;;;;;;5005594;28;20180;-77
2022/12/17 19:13:35;;;;;;;53.10;33.23;;;-6.00;1.00;;;;;;5006576;28;20249;-74
2022/12/17 19:16:16;;;;;;;48.27;31.17;;;-6.00;1.00;;;;;;5022279;22;20701;-78
2022/12/17 19:18:42;;;;;;;47.37;29.97;;;-6.30;99.90;;;;;;5007644;28;20186;-78
2022/12/17 19:21:13;;;;;;;52.97;31.30;;;-6.30;99.90;;;;;;5006240;28;20206;-78
2022/12/17 19:23:39;;;;;;;48.33;31.43;;;-6.40;99.90;;;;;;5005479;28;20273;-78
2022/12/17 19:26:20;;;;;;;74.63;48.63;;;-6.50;99.90;;;;;;5006770;28;20179;-76
2022/12/17 19:28:51;;;;;;;53.30;34.10;;;-6.50;99.90;;;;;;5005594;28;20214;-77
2022/12/17 19:31:19;;;;;;;45.50;31.70;;;-6.50;99.90;;;;;;5006625;28;20179;-79
2022/12/17 19:33:45;;;;;;;53.40;33.03;;;-6.70;1.00;;;;;;5005931;28;20208;-76
2022/12/17 19:36:19;;;;;;;54.60;36.23;;;-6.70;1.00;;;;;;5005724;28;20183;-79
2022/12/17 19:38:45;;;;;;;52.27;35.27;;;-6.80;1.00;;;;;;5007197;28;20191;-76
2022/12/17 19:41:16;;;;;;;51.20;34.33;;;-6.90;1.00;;;;;;5007858;28;20191;-77
2022/12/17 19:43:43;;;;;;;50.20;32.43;;;-6.80;99.90;;;;;;5006613;28;20203;-78
2022/12/17 19:46:11;;;;;;;48.53;31.23;;;-6.90;1.00;;;;;;5007060;28;20190;-78
2022/12/17 19:48:38;;;;;;;46.13;30.30;;;-6.80;1.00;;;;;;5007747;28;20315;-78
2022/12/17 19:51:05;;;;;;;48.87;31.33;;;-6.80;99.30;;;;;;5005597;28;20175;-78
2022/12/17 19:53:32;;;;;;;41.77;29.77;;;-6.70;99.90;;;;;;5007537;28;20307;-77
2022/12/17 19:56:10;;;;;;;45.47;28.90;;;-6.70;99.90;;;;;;5006712;28;20180;-79
2022/12/17 19:58:38;;;;;;;43.40;28.33;;;-6.90;1.00;;;;;;5007719;28;20179;-78
2022/12/17 20:01:10;;;;;;;45.10;28.57;;;-6.90;1.00;;;;;;5007151;28;20402;-79
2022/12/17 20:03:37;;;;;;;43.60;28.63;;;-6.80;97.00;;;;;;5005967;28;20211;-78
2022/12/17 20:06:04;;;;;;;42.90;27.40;;;-6.80;1.00;;;;;;5007027;28;20179;-78
2022/12/17 20:08:30;;;;;;;45.60;29.57;;;-6.80;1.00;;;;;;5005814;28;20669;-77
2022/12/17 20:10:57;;;;;;;43.97;28.70;;;-6.90;1.00;;;;;;5005086;28;20179;-78
2022/12/17 20:13:23;;;;;;;42.57;27.80;;;-7.60;1.00;;;;;;5007702;28;20203;-77
2022/12/17 20:15:58;;;;;;;42.83;28.63;;;-7.10;1.00;;;;;;5006049;28;20207;-79
2022/12/17 20:18:24;;;;;;;40.57;26.90;;;-7.10;1.00;;;;;;5006401;28;20731;-76
2022/12/17 20:20:50;;;;;;;38.73;26.00;;;-7.10;1.00;;;;;;5007208;28;20180;-78
2022/12/17 20:23:15;;;;;;;43.50;27.77;;;-7.10;1.00;;;;;;5007351;28;20286;-78
2022/12/17 20:25:41;;;;;;;41.00;27.57;;;-7.20;1.00;;;;;;5006102;28;20184;-77
2022/12/17 20:28:06;;;;;;;39.53;26.20;;;-7.20;1.00;;;;;;5006580;28;20763;-78
2022/12/17 20:30:32;;;;;;;42.17;28.43;;;-7.30;1.00;;;;;;5006780;28;20233;-78
2022/12/17 20:32:58;;;;;;;43.67;26.90;;;-7.30;1.00;;;;;;5006499;28;20199;-78
2022/12/17 20:35:24;;;;;;;43.33;28.00;;;-7.30;1.00;;;;;;5006885;28;20180;-78
2022/12/17 20:37:49;;;;;;;42.83;27.57;;;-7.30;1.00;;;;;;5005110;28;20188;-79
2022/12/17 20:40:15;;;;;;;40.70;27.13;;;-7.60;1.00;;;;;;5007115;28;20188;-77
2022/12/17 20:42:40;;;;;;;41.07;27.07;;;-7.40;1.00;;;;;;5006256;28;20627;-79
2022/12/17 20:45:07;;;;;;;40.13;26.10;;;-7.10;1.00;;;;;;5006229;28;20202;-78
2022/12/17 20:47:32;;;;;;;41.00;27.27;;;-7.30;1.00;;;;;;5006233;28;20283;-78
2022/12/17 20:49:58;;;;;;;40.47;26.67;;;-7.20;1.00;;;;;;5006458;28;20255;-78
2022/12/17 20:52:23;;;;;;;39.63;26.43;;;-7.20;1.00;;;;;;5005877;28;20199;-78
2022/12/17 20:54:49;;;;;;;40.97;26.30;;;-7.10;17.40;;;;;;5006857;28;20215;-78
2022/12/17 20:57:15;;;;;;;39.23;26.93;;;-7.20;1.00;;;;;;5005964;28;20188;-78
2022/12/17 20:59:41;;;;;;;39.27;26.73;;;-7.30;1.00;;;;;;5005475;28;20253;-77
2022/12/17 21:02:06;;;;;;;39.20;25.20;;;-7.60;1.00;;;;;;5004261;28;20284;-78
2022/12/17 21:04:32;;;;;;;39.77;25.63;;;-7.40;1.00;;;;;;5006928;28;20298;-78
2022/12/17 21:06:58;;;;;;;41.40;26.93;;;-7.30;1.00;;;;;;5006144;28;20207;-77
2022/12/17 21:09:24;;;;;;;44.67;28.40;;;-7.30;1.00;;;;;;5005806;28;20795;-79
2022/12/17 21:11:49;;;;;;;39.67;26.43;;;-7.30;1.00;;;;;;5004409;28;20180;-77
2022/12/17 21:14:18;;;;;;;39.87;25.10;;;-7.50;1.00;;;;;;5005658;28;20214;-77
2022/12/17 21:16:44;;;;;;;37.60;26.07;;;-7.60;1.00;;;;;;5004499;28;20187;-78
2022/12/17 21:19:13;;;;;;;36.03;24.63;;;-7.70;1.00;;;;;;5006487;28;20190;-76
2022/12/17 21:21:39;;;;;;;36.97;24.90;;;-7.50;1.00;;;;;;5004914;28;20559;-77
2022/12/17 21:24:06;;;;;;;39.43;25.07;;;-7.50;1.00;;;;;;5005540;28;20211;-79
2022/12/17 21:26:34;;;;;;;35.60;24.03;;;-7.50;1.00;;;;;;5005072;28;20172;-77
2022/12/17 21:29:02;;;;;;;38.30;24.73;;;-7.60;1.00;;;;;;5005715;28;20249;-78
2022/12/17 21:31:39;;;;;;;38.47;26.07;;;-7.70;1.00;;;;;;5005404;28;20310;-78
2022/12/17 21:34:07;;;;;;;36.93;24.33;;;-7.70;1.00;;;;;;5003744;28;20269;-79
2022/12/17 21:36:33;;;;;;;41.47;26.67;;;-7.60;1.00;;;;;;5005767;28;20194;-78
2022/12/17 21:39:00;;;;;;;36.60;24.47;;;-7.60;1.00;;;;;;5004566;28;20194;-78
2022/12/17 21:41:29;;;;;;;35.97;24.03;;;-7.60;1.00;;;;;;5005622;28;20285;-78
2022/12/17 21:43:57;;;;;;;36.40;23.60;;;-7.70;1.00;;;;;;5005730;28;20289;-78
2022/12/17 21:46:25;;;;;;;35.03;23.80;;;-7.80;1.00;;;;;;5004309;28;20199;-78
2022/12/17 21:48:52;;;;;;;37.50;25.00;;;-7.70;1.00;;;;;;5006412;28;20175;-77
2022/12/17 21:51:19;;;;;;;39.93;25.57;;;-7.60;1.00;;;;;;5005871;28;20660;-76
2022/12/17 21:53:45;;;;;;;36.97;24.20;;;-7.70;1.00;;;;;;5008547;28;20230;-79
2022/12/17 21:56:13;;;;;;;35.63;25.00;;;-7.80;1.00;;;;;;5005606;28;20187;-77
2022/12/17 21:58:39;;;;;;;37.57;25.50;;;-7.70;1.00;;;;;;5004414;28;20187;-77
2022/12/17 22:01:17;;;;;;;39.37;24.40;;;-8.10;1.00;;;;;;5005019;28;20239;-78
2022/12/17 22:03:43;;;;;;;39.23;25.53;;;-8.10;1.00;;;;;;5004718;28;20266;-77
2022/12/17 22:06:12;;;;;;;40.23;25.83;;;-8.00;1.00;;;;;;5004742;28;20188;-78
2022/12/17 22:08:39;;;;;;;39.20;25.50;;;-8.00;1.00;;;;;;5004214;28;20184;-77
2022/12/17 22:11:12;;;;;;;38.00;24.63;;;-8.00;1.00;;;;;;5003728;28;20179;-78
2022/12/17 22:16:24;;;;;;;37.80;23.93;;;-7.90;1.00;;;;;;5005140;28;20210;-79
2022/12/17 22:18:50;;;;;;;38.63;24.87;;;-8.10;1.00;;;;;;5006395;28;20183;-79
2022/12/17 22:21:16;;;;;;;37.57;24.27;;;-8.30;1.00;;;;;;5004313;28;20199;-78
2022/12/17 22:23:47;;;;;;;40.93;25.83;;;-8.20;1.00;;;;;;5006582;28;20294;-79
2022/12/17 22:26:17;;;;;;;40.47;25.57;;;-8.40;1.00;;;;;;5004760;28;20175;-78
2022/12/17 22:28:47;;;;;;;41.70;26.13;;;-8.30;1.00;;;;;;5007020;28;20168;-79
2022/12/17 22:33:59;;;;;;;37.53;24.80;;;-8.20;18.20;;;;;;5006197;28;21264;-79
2022/12/17 22:36:27;;;;;;;38.83;25.07;;;-8.20;1.00;;;;;;5004629;28;20192;-79
2022/12/17 22:38:53;;;;;;;37.67;24.20;;;-7.90;1.00;;;;;;5005099;28;20200;-79
2022/12/17 22:44:03;;;;;;;37.67;25.30;;;-8.30;1.00;;;;;;5006575;28;20637;-78
2022/12/17 22:46:30;;;;;;;41.90;26.27;;;-8.00;1.00;;;;;;5005287;28;20233;-79
2022/12/17 22:48:57;;;;;;;39.47;25.43;;;-8.20;1.00;;;;;;5006447;28;20649;-79
2022/12/17 22:51:24;;;;;;;40.87;25.90;;;-8.30;1.00;;;;;;5006633;28;20204;-79
2022/12/17 22:53:51;;;;;;;43.00;24.77;;;-8.30;1.00;;;;;;5005773;28;20220;-79
2022/12/17 22:56:18;;;;;;;39.20;25.30;;;-8.30;1.00;;;;;;5003655;28;20567;-78
2022/12/17 22:58:43;;;;;;;38.43;23.37;;;-8.30;1.00;;;;;;5006296;28;20242;-79
2022/12/17 23:01:09;;;;;;;39.07;24.37;;;-8.30;1.00;;;;;;5005761;28;20625;-79
2022/12/17 23:03:35;;;;;;;36.10;23.10;;;-8.40;1.00;;;;;;5006214;28;20211;-79
2022/12/17 23:06:13;;;;;;;39.67;23.60;;;-8.40;31.30;;;;;;5004381;28;20246;-79
2022/12/17 23:08:40;;;;;;;38.23;24.10;;;-8.30;91.40;;;;;;5008693;28;20549;-78
2022/12/17 23:11:11;;;;;;;40.60;24.90;;;-8.30;99.90;;;;;;5006791;28;20196;-79
2022/12/17 23:13:37;;;;;;;41.67;25.87;;;-8.40;3.70;;;;;;5008306;28;20215;-79
2022/12/17 23:16:04;;;;;;;42.50;25.53;;;-8.50;87.20;;;;;;5009220;28;20238;-78
2022/12/17 23:18:30;;;;;;;41.60;26.13;;;-8.50;99.90;;;;;;5007519;28;20186;-78
2022/12/17 23:20:56;;;;;;;40.30;23.43;;;-8.40;99.90;;;;;;5009903;28;20215;-79
2022/12/17 23:23:21;;;;;;;40.67;24.97;;;-8.50;99.90;;;;;;5007486;28;20246;-77
2022/12/17 23:25:47;;;;;;;42.13;25.07;;;-8.30;99.90;;;;;;5007802;28;20179;-78
2022/12/17 23:28:12;;;;;;;40.63;24.57;;;-8.50;99.90;;;;;;5008468;28;20688;-79
2022/12/17 23:30:38;;;;;;;40.93;24.60;;;-8.40;99.90;;;;;;5009328;28;20198;-79
2022/12/17 23:33:04;;;;;;;35.83;22.77;;;-8.50;99.90;;;;;;5008675;28;20195;-79
2022/12/17 23:35:30;;;;;;;37.07;23.13;;;-8.50;99.90;;;;;;5009221;28;20234;-78
2022/12/17 23:37:56;;;;;;;39.70;24.00;;;-8.40;99.90;;;;;;5009997;28;20270;-79
2022/12/17 23:40:21;;;;;;;37.23;23.87;;;-8.30;99.90;;;;;;5008688;28;20252;-77
2022/12/17 23:42:47;;;;;;;38.63;23.87;;;-8.30;99.90;;;;;;5008517;28;20277;-78
2022/12/17 23:45:13;;;;;;;35.43;22.80;;;-8.20;99.90;;;;;;5009305;28;20561;-78
2022/12/17 23:47:39;;;;;;;40.17;24.10;;;-8.20;99.90;;;;;;5009669;28;20211;-78
2022/12/17 23:50:06;;;;;;;40.30;24.00;;;-8.30;99.90;;;;;;5009371;28;20192;-78
2022/12/17 23:52:32;;;;;;;37.60;23.50;;;-8.30;99.90;;;;;;5009373;28;20211;-79
2022/12/17 23:54:58;;;;;;;39.77;23.90;;;-8.30;99.90;;;;;;5008409;28;20186;-78
2022/12/17 23:57:23;;;;;;;41.00;24.23;;;-8.50;99.90;;;;;;5008866;28;20186;-78
2022/12/17 23:59:49;;;;;;;40.67;23.87;;;-8.50;99.90;;;;;;5009531;28;20621;-78
